Etusivu
Sääsatelliitin kuvat 15 päivän ennusteIlmastoMerisää Sykloni Salama LentoasemaUKK Newsletter Tietoja
Sää : Eurooppa Afrikka Pohjois-Amerikka Etelä-Amerikka Aasia Australia-Oseania Muut
Kielillä Yhteystiedot

Kittilä, Suomi

Leveyspiiri: 67-42N, Pituuspiiri: 024-51E, korkeus: 196 m


METAR: EFKT 030650Z AUTO 23007KT 190V260 CAVOK 13/08 Q1014
short-TAF: EFKT 030532Z 0306/0312 22008KT CAVOK
long-TAF: vanhentunut (23955 tuntia)

Aika: 09:58 (06:58 UTC)

Tämänhetkinen sää

Tämä raportti tehtiin 7 minuuttia sitten, kello 06:50 UTC  
Tuuli 07 kt alkaen lounas, vaihdellen etelä ja länsi
Lämpötila 13°C
Kosteus 72%
Ilmanpaine 1014 hPa
Näkyvyys 10 km tai enemmän
ei ollut pilviä alle 1500m eikä cumulonimbus pilviä

Mittayksikkö

Sääennuste

Tämä raportti tehtiin 1 tunti ja 15 minuuttia sitten, kello 05:42 UTC  
Ennuste voimassa 03 klo 06 UTC - 03 klo 12 UTC
Tuuli 08 kt alkaen lounas
Näkyvyys 10 km tai enemmän
ei ollut pilviä alle 1500m eikä cumulonimbus pilviä
Tällä sivustolla oleviin tietoihin liittyy vastuuvapauslauseke
Sää : Eurooppa Afrikka Pohjois-Amerikka Etelä-Amerikka Aasia Australia-Oseania Muut
Sääsatelliitin kuvat 15 päivän ennusteIlmastoMerisää Sykloni Salama LentoasemaUKK Kielillä Yhteystiedot Newsletter Tietoja